sensor_id;sensor_type;location;lat;lon;timestamp;P1;durP1;ratioP1;P2;durP2;ratioP2
41711;SDS011;27399;51.516;13.670;2023-07-13T00:00:37;2.72;;;1.50;;
41711;SDS011;27399;51.516;13.670;2023-07-13T00:03:03;1.88;;;1.13;;
41711;SDS011;27399;51.516;13.670;2023-07-13T00:05:33;1.40;;;1.20;;
41711;SDS011;27399;51.516;13.670;2023-07-13T00:08:02;4.97;;;1.25;;
41711;SDS011;27399;51.516;13.670;2023-07-13T00:10:31;2.65;;;1.20;;
41711;SDS011;27399;51.516;13.670;2023-07-13T00:12:59;9.90;;;2.10;;
41711;SDS011;27399;51.516;13.670;2023-07-13T00:15:28;9.57;;;1.15;;
41711;SDS011;27399;51.516;13.670;2023-07-13T00:17:57;4.88;;;1.30;;
41711;SDS011;27399;51.516;13.670;2023-07-13T00:20:26;9.68;;;1.65;;
41711;SDS011;27399;51.516;13.670;2023-07-13T00:22:55;7.38;;;1.73;;
41711;SDS011;27399;51.516;13.670;2023-07-13T00:29:20;6.95;;;1.50;;
41711;SDS011;27399;51.516;13.670;2023-07-13T00:31:46;5.38;;;1.40;;
41711;SDS011;27399;51.516;13.670;2023-07-13T00:34:12;2.60;;;1.27;;
41711;SDS011;27399;51.516;13.670;2023-07-13T00:36:38;6.10;;;1.23;;
41711;SDS011;27399;51.516;13.670;2023-07-13T00:39:04;2.17;;;1.30;;
41711;SDS011;27399;51.516;13.670;2023-07-13T00:41:31;2.15;;;1.30;;
41711;SDS011;27399;51.516;13.670;2023-07-13T00:43:57;3.10;;;1.33;;
41711;SDS011;27399;51.516;13.670;2023-07-13T00:46:28;2.88;;;1.25;;
41711;SDS011;27399;51.516;13.670;2023-07-13T00:48:57;3.60;;;1.73;;
41711;SDS011;27399;51.516;13.670;2023-07-13T00:51:34;1.88;;;1.30;;
41711;SDS011;27399;51.516;13.670;2023-07-13T00:54:10;3.35;;;1.30;;
41711;SDS011;27399;51.516;13.670;2023-07-13T00:56:41;4.68;;;1.50;;
41711;SDS011;27399;51.516;13.670;2023-07-13T00:59:11;1.75;;;1.38;;
41711;SDS011;27399;51.516;13.670;2023-07-13T01:01:40;2.00;;;1.50;;
41711;SDS011;27399;51.516;13.670;2023-07-13T01:04:09;2.88;;;1.48;;
41711;SDS011;27399;51.516;13.670;2023-07-13T01:06:36;2.42;;;1.27;;
41711;SDS011;27399;51.516;13.670;2023-07-13T01:09:03;2.10;;;1.10;;
41711;SDS011;27399;51.516;13.670;2023-07-13T01:11:30;4.78;;;1.38;;
41711;SDS011;27399;51.516;13.670;2023-07-13T01:14:14;5.78;;;2.50;;
41711;SDS011;27399;51.516;13.670;2023-07-13T01:16:44;9.20;;;1.40;;
41711;SDS011;27399;51.516;13.670;2023-07-13T01:19:21;2.83;;;1.20;;
41711;SDS011;27399;51.516;13.670;2023-07-13T01:22:14;2.92;;;1.73;;
41711;SDS011;27399;51.516;13.670;2023-07-13T01:24:44;2.50;;;1.40;;
41711;SDS011;27399;51.516;13.670;2023-07-13T01:27:14;2.45;;;1.58;;
41711;SDS011;27399;51.516;13.670;2023-07-13T01:29:46;3.22;;;1.33;;
41711;SDS011;27399;51.516;13.670;2023-07-13T01:32:14;4.45;;;1.60;;
41711;SDS011;27399;51.516;13.670;2023-07-13T01:34:47;2.38;;;1.40;;
41711;SDS011;27399;51.516;13.670;2023-07-13T01:37:19;4.28;;;1.40;;
41711;SDS011;27399;51.516;13.670;2023-07-13T01:39:46;8.63;;;1.48;;
41711;SDS011;27399;51.516;13.670;2023-07-13T01:42:15;11.75;;;1.90;;
41711;SDS011;27399;51.516;13.670;2023-07-13T01:44:44;7.40;;;1.55;;
41711;SDS011;27399;51.516;13.670;2023-07-13T01:47:12;3.15;;;1.40;;
41711;SDS011;27399;51.516;13.670;2023-07-13T01:49:38;5.38;;;1.63;;
41711;SDS011;27399;51.516;13.670;2023-07-13T01:52:07;8.45;;;1.40;;
41711;SDS011;27399;51.516;13.670;2023-07-13T01:54:36;3.17;;;1.15;;
41711;SDS011;27399;51.516;13.670;2023-07-13T01:57:05;5.80;;;1.33;;
41711;SDS011;27399;51.516;13.670;2023-07-13T01:59:31;3.97;;;1.50;;
41711;SDS011;27399;51.516;13.670;2023-07-13T02:02:06;6.97;;;1.27;;
41711;SDS011;27399;51.516;13.670;2023-07-13T02:04:33;10.52;;;2.80;;
41711;SDS011;27399;51.516;13.670;2023-07-13T02:07:00;4.47;;;1.40;;
41711;SDS011;27399;51.516;13.670;2023-07-13T02:09:26;4.30;;;1.40;;
41711;SDS011;27399;51.516;13.670;2023-07-13T02:11:56;3.28;;;1.67;;
41711;SDS011;27399;51.516;13.670;2023-07-13T02:14:25;2.30;;;1.50;;
41711;SDS011;27399;51.516;13.670;2023-07-13T02:16:54;8.23;;;1.40;;
41711;SDS011;27399;51.516;13.670;2023-07-13T02:19:19;1.70;;;1.40;;
41711;SDS011;27399;51.516;13.670;2023-07-13T02:21:51;3.17;;;1.40;;
41711;SDS011;27399;51.516;13.670;2023-07-13T02:24:20;4.00;;;1.33;;
41711;SDS011;27399;51.516;13.670;2023-07-13T02:26:52;8.10;;;1.90;;
41711;SDS011;27399;51.516;13.670;2023-07-13T02:29:18;7.63;;;1.50;;
41711;SDS011;27399;51.516;13.670;2023-07-13T02:31:48;1.58;;;1.33;;
41711;SDS011;27399;51.516;13.670;2023-07-13T02:34:17;3.67;;;1.40;;
41711;SDS011;27399;51.516;13.670;2023-07-13T02:36:42;4.65;;;1.50;;
41711;SDS011;27399;51.516;13.670;2023-07-13T02:39:08;4.10;;;1.70;;
41711;SDS011;27399;51.516;13.670;2023-07-13T02:41:34;3.90;;;1.95;;
41711;SDS011;27399;51.516;13.670;2023-07-13T02:44:00;5.13;;;1.73;;
41711;SDS011;27399;51.516;13.670;2023-07-13T02:46:29;3.70;;;1.77;;
41711;SDS011;27399;51.516;13.670;2023-07-13T02:48:56;5.82;;;1.58;;
41711;SDS011;27399;51.516;13.670;2023-07-13T02:51:21;6.10;;;1.88;;
41711;SDS011;27399;51.516;13.670;2023-07-13T02:53:47;2.72;;;1.85;;
41711;SDS011;27399;51.516;13.670;2023-07-13T02:56:13;4.22;;;1.73;;
41711;SDS011;27399;51.516;13.670;2023-07-13T02:58:38;6.50;;;1.45;;
41711;SDS011;27399;51.516;13.670;2023-07-13T03:01:08;3.72;;;1.40;;
41711;SDS011;27399;51.516;13.670;2023-07-13T03:03:35;4.35;;;1.73;;
41711;SDS011;27399;51.516;13.670;2023-07-13T03:06:02;3.15;;;1.40;;
41711;SDS011;27399;51.516;13.670;2023-07-13T03:08:30;4.70;;;1.10;;
41711;SDS011;27399;51.516;13.670;2023-07-13T03:11:15;14.35;;;1.85;;
41711;SDS011;27399;51.516;13.670;2023-07-13T03:13:42;6.72;;;1.65;;
41711;SDS011;27399;51.516;13.670;2023-07-13T03:16:09;7.38;;;1.70;;
41711;SDS011;27399;51.516;13.670;2023-07-13T03:18:36;10.88;;;1.83;;
41711;SDS011;27399;51.516;13.670;2023-07-13T03:21:02;3.88;;;1.40;;
41711;SDS011;27399;51.516;13.670;2023-07-13T03:23:28;6.18;;;1.73;;
41711;SDS011;27399;51.516;13.670;2023-07-13T03:28:37;7.55;;;1.75;;
41711;SDS011;27399;51.516;13.670;2023-07-13T03:31:05;6.35;;;1.77;;
41711;SDS011;27399;51.516;13.670;2023-07-13T03:33:34;5.32;;;1.77;;
41711;SDS011;27399;51.516;13.670;2023-07-13T03:36:00;3.28;;;1.58;;
41711;SDS011;27399;51.516;13.670;2023-07-13T03:38:25;3.13;;;1.48;;
41711;SDS011;27399;51.516;13.670;2023-07-13T03:40:52;3.42;;;1.65;;
41711;SDS011;27399;51.516;13.670;2023-07-13T03:43:18;5.03;;;1.40;;
41711;SDS011;27399;51.516;13.670;2023-07-13T03:45:45;5.97;;;1.55;;
41711;SDS011;27399;51.516;13.670;2023-07-13T03:48:11;3.08;;;1.42;;
41711;SDS011;27399;51.516;13.670;2023-07-13T03:50:37;11.63;;;1.92;;
41711;SDS011;27399;51.516;13.670;2023-07-13T03:53:03;6.55;;;1.65;;
41711;SDS011;27399;51.516;13.670;2023-07-13T03:55:29;13.52;;;1.60;;
41711;SDS011;27399;51.516;13.670;2023-07-13T03:57:59;7.35;;;1.60;;
41711;SDS011;27399;51.516;13.670;2023-07-13T04:00:26;4.05;;;1.75;;
41711;SDS011;27399;51.516;13.670;2023-07-13T04:02:52;3.10;;;2.10;;
41711;SDS011;27399;51.516;13.670;2023-07-13T04:05:18;5.13;;;1.60;;
41711;SDS011;27399;51.516;13.670;2023-07-13T04:07:44;4.47;;;1.40;;
41711;SDS011;27399;51.516;13.670;2023-07-13T04:10:09;11.23;;;1.70;;
41711;SDS011;27399;51.516;13.670;2023-07-13T04:12:35;4.28;;;1.48;;
41711;SDS011;27399;51.516;13.670;2023-07-13T04:15:01;7.28;;;1.83;;
41711;SDS011;27399;51.516;13.670;2023-07-13T04:17:27;4.40;;;1.90;;
41711;SDS011;27399;51.516;13.670;2023-07-13T04:19:52;2.00;;;1.50;;
41711;SDS011;27399;51.516;13.670;2023-07-13T04:22:18;7.95;;;2.35;;
41711;SDS011;27399;51.516;13.670;2023-07-13T04:24:44;4.03;;;1.75;;
41711;SDS011;27399;51.516;13.670;2023-07-13T04:27:09;5.63;;;2.03;;
41711;SDS011;27399;51.516;13.670;2023-07-13T04:29:35;3.58;;;1.90;;
41711;SDS011;27399;51.516;13.670;2023-07-13T04:32:00;8.30;;;1.98;;
41711;SDS011;27399;51.516;13.670;2023-07-13T04:34:26;4.07;;;1.67;;
41711;SDS011;27399;51.516;13.670;2023-07-13T04:36:52;4.05;;;1.95;;
41711;SDS011;27399;51.516;13.670;2023-07-13T04:39:18;2.47;;;1.90;;
41711;SDS011;27399;51.516;13.670;2023-07-13T04:41:43;3.55;;;1.98;;
41711;SDS011;27399;51.516;13.670;2023-07-13T04:44:09;5.68;;;1.98;;
41711;SDS011;27399;51.516;13.670;2023-07-13T04:46:35;4.03;;;2.00;;
41711;SDS011;27399;51.516;13.670;2023-07-13T04:49:00;6.65;;;2.00;;
41711;SDS011;27399;51.516;13.670;2023-07-13T04:51:28;4.53;;;2.20;;
41711;SDS011;27399;51.516;13.670;2023-07-13T04:53:54;5.03;;;2.00;;
41711;SDS011;27399;51.516;13.670;2023-07-13T04:56:20;5.40;;;1.98;;
41711;SDS011;27399;51.516;13.670;2023-07-13T04:58:45;4.13;;;1.77;;
41711;SDS011;27399;51.516;13.670;2023-07-13T05:01:11;6.40;;;2.25;;
41711;SDS011;27399;51.516;13.670;2023-07-13T05:03:38;9.43;;;2.10;;
41711;SDS011;27399;51.516;13.670;2023-07-13T05:06:05;5.50;;;2.25;;
41711;SDS011;27399;51.516;13.670;2023-07-13T05:08:35;5.13;;;1.85;;
41711;SDS011;27399;51.516;13.670;2023-07-13T05:11:01;7.00;;;2.22;;
41711;SDS011;27399;51.516;13.670;2023-07-13T05:13:28;3.05;;;2.20;;
41711;SDS011;27399;51.516;13.670;2023-07-13T05:16:01;5.78;;;1.83;;
41711;SDS011;27399;51.516;13.670;2023-07-13T05:18:28;4.03;;;1.80;;
41711;SDS011;27399;51.516;13.670;2023-07-13T05:20:58;5.72;;;2.15;;
41711;SDS011;27399;51.516;13.670;2023-07-13T05:23:25;7.30;;;2.00;;
41711;SDS011;27399;51.516;13.670;2023-07-13T05:25:52;7.43;;;2.05;;
41711;SDS011;27399;51.516;13.670;2023-07-13T05:28:18;8.43;;;2.33;;
41711;SDS011;27399;51.516;13.670;2023-07-13T05:30:47;5.38;;;2.78;;
41711;SDS011;27399;51.516;13.670;2023-07-13T05:33:13;3.90;;;2.37;;
41711;SDS011;27399;51.516;13.670;2023-07-13T05:35:39;4.80;;;2.65;;
41711;SDS011;27399;51.516;13.670;2023-07-13T05:38:05;6.35;;;2.55;;
41711;SDS011;27399;51.516;13.670;2023-07-13T05:40:31;5.05;;;2.42;;
41711;SDS011;27399;51.516;13.670;2023-07-13T05:42:57;3.67;;;2.13;;
41711;SDS011;27399;51.516;13.670;2023-07-13T05:45:22;6.25;;;2.15;;
41711;SDS011;27399;51.516;13.670;2023-07-13T05:47:48;5.45;;;2.10;;
41711;SDS011;27399;51.516;13.670;2023-07-13T05:50:14;5.32;;;2.22;;
41711;SDS011;27399;51.516;13.670;2023-07-13T05:52:39;6.88;;;2.33;;
41711;SDS011;27399;51.516;13.670;2023-07-13T05:55:05;5.72;;;2.28;;
41711;SDS011;27399;51.516;13.670;2023-07-13T05:57:31;5.95;;;2.58;;
41711;SDS011;27399;51.516;13.670;2023-07-13T05:59:57;5.18;;;2.13;;
41711;SDS011;27399;51.516;13.670;2023-07-13T06:02:23;7.10;;;2.28;;
41711;SDS011;27399;51.516;13.670;2023-07-13T06:04:48;4.90;;;2.58;;
41711;SDS011;27399;51.516;13.670;2023-07-13T06:07:14;6.32;;;2.20;;
41711;SDS011;27399;51.516;13.670;2023-07-13T06:09:40;4.57;;;1.98;;
41711;SDS011;27399;51.516;13.670;2023-07-13T06:12:06;3.17;;;1.77;;
41711;SDS011;27399;51.516;13.670;2023-07-13T06:14:32;6.53;;;2.22;;
41711;SDS011;27399;51.516;13.670;2023-07-13T06:16:58;6.30;;;2.10;;
41711;SDS011;27399;51.516;13.670;2023-07-13T06:19:24;7.53;;;2.30;;
41711;SDS011;27399;51.516;13.670;2023-07-13T06:21:49;5.63;;;1.80;;
41711;SDS011;27399;51.516;13.670;2023-07-13T06:24:15;8.38;;;1.70;;
41711;SDS011;27399;51.516;13.670;2023-07-13T06:26:41;4.35;;;2.30;;
41711;SDS011;27399;51.516;13.670;2023-07-13T06:29:06;4.65;;;1.98;;
41711;SDS011;27399;51.516;13.670;2023-07-13T06:31:32;3.67;;;1.75;;
41711;SDS011;27399;51.516;13.670;2023-07-13T06:33:58;4.35;;;1.80;;
41711;SDS011;27399;51.516;13.670;2023-07-13T06:36:23;3.58;;;1.90;;
41711;SDS011;27399;51.516;13.670;2023-07-13T06:38:49;2.08;;;1.48;;
41711;SDS011;27399;51.516;13.670;2023-07-13T06:41:15;3.40;;;1.90;;
41711;SDS011;27399;51.516;13.670;2023-07-13T06:43:41;4.78;;;1.63;;
41711;SDS011;27399;51.516;13.670;2023-07-13T06:46:06;5.47;;;1.60;;
41711;SDS011;27399;51.516;13.670;2023-07-13T06:48:33;3.15;;;1.40;;
41711;SDS011;27399;51.516;13.670;2023-07-13T06:50:59;4.65;;;1.92;;
41711;SDS011;27399;51.516;13.670;2023-07-13T06:53:24;1.98;;;1.45;;
41711;SDS011;27399;51.516;13.670;2023-07-13T06:55:50;3.08;;;1.40;;
41711;SDS011;27399;51.516;13.670;2023-07-13T06:58:17;4.53;;;1.58;;
41711;SDS011;27399;51.516;13.670;2023-07-13T07:00:43;4.78;;;1.45;;
41711;SDS011;27399;51.516;13.670;2023-07-13T07:03:09;3.50;;;1.42;;
41711;SDS011;27399;51.516;13.670;2023-07-13T07:05:35;4.53;;;1.48;;
41711;SDS011;27399;51.516;13.670;2023-07-13T07:08:00;3.08;;;1.20;;
41711;SDS011;27399;51.516;13.670;2023-07-13T07:10:28;5.47;;;1.70;;
41711;SDS011;27399;51.516;13.670;2023-07-13T07:12:55;2.45;;;1.23;;
41711;SDS011;27399;51.516;13.670;2023-07-13T07:15:21;9.18;;;1.52;;
41711;SDS011;27399;51.516;13.670;2023-07-13T07:17:46;5.20;;;1.20;;
41711;SDS011;27399;51.516;13.670;2023-07-13T07:20:12;5.38;;;1.50;;
41711;SDS011;27399;51.516;13.670;2023-07-13T07:22:38;9.70;;;1.52;;
41711;SDS011;27399;51.516;13.670;2023-07-13T07:25:04;15.07;;;1.40;;
41711;SDS011;27399;51.516;13.670;2023-07-13T07:27:30;5.75;;;1.38;;
41711;SDS011;27399;51.516;13.670;2023-07-13T07:29:55;4.70;;;1.48;;
41711;SDS011;27399;51.516;13.670;2023-07-13T07:32:22;3.67;;;1.60;;
41711;SDS011;27399;51.516;13.670;2023-07-13T07:34:48;4.68;;;1.20;;
41711;SDS011;27399;51.516;13.670;2023-07-13T07:37:14;3.45;;;1.50;;
41711;SDS011;27399;51.516;13.670;2023-07-13T07:39:42;1.73;;;1.20;;
41711;SDS011;27399;51.516;13.670;2023-07-13T07:42:08;3.05;;;1.40;;
41711;SDS011;27399;51.516;13.670;2023-07-13T07:44:34;2.08;;;1.13;;
41711;SDS011;27399;51.516;13.670;2023-07-13T07:47:00;2.90;;;1.30;;
41711;SDS011;27399;51.516;13.670;2023-07-13T07:49:26;2.00;;;1.15;;
41711;SDS011;27399;51.516;13.670;2023-07-13T07:51:52;4.70;;;1.40;;
41711;SDS011;27399;51.516;13.670;2023-07-13T07:54:18;3.88;;;1.40;;
41711;SDS011;27399;51.516;13.670;2023-07-13T07:56:43;3.67;;;1.00;;
41711;SDS011;27399;51.516;13.670;2023-07-13T07:59:09;7.13;;;1.88;;
41711;SDS011;27399;51.516;13.670;2023-07-13T08:01:35;4.47;;;1.15;;
41711;SDS011;27399;51.516;13.670;2023-07-13T08:04:01;4.55;;;1.30;;
41711;SDS011;27399;51.516;13.670;2023-07-13T08:06:27;6.57;;;1.52;;
41711;SDS011;27399;51.516;13.670;2023-07-13T08:08:54;5.55;;;1.80;;
41711;SDS011;27399;51.516;13.670;2023-07-13T08:11:20;4.22;;;1.55;;
41711;SDS011;27399;51.516;13.670;2023-07-13T08:13:47;5.15;;;1.40;;
41711;SDS011;27399;51.516;13.670;2023-07-13T08:16:13;2.72;;;1.15;;
41711;SDS011;27399;51.516;13.670;2023-07-13T08:18:38;5.20;;;1.35;;
41711;SDS011;27399;51.516;13.670;2023-07-13T08:21:05;6.03;;;1.40;;
41711;SDS011;27399;51.516;13.670;2023-07-13T08:23:31;2.25;;;1.17;;
41711;SDS011;27399;51.516;13.670;2023-07-13T08:25:57;4.70;;;1.00;;
41711;SDS011;27399;51.516;13.670;2023-07-13T08:28:24;3.17;;;1.05;;
41711;SDS011;27399;51.516;13.670;2023-07-13T08:30:50;6.63;;;1.50;;
41711;SDS011;27399;51.516;13.670;2023-07-13T08:33:19;2.30;;;1.20;;
41711;SDS011;27399;51.516;13.670;2023-07-13T08:35:49;3.88;;;1.70;;
41711;SDS011;27399;51.516;13.670;2023-07-13T08:38:15;6.18;;;1.63;;
41711;SDS011;27399;51.516;13.670;2023-07-13T08:40:42;5.28;;;1.75;;
41711;SDS011;27399;51.516;13.670;2023-07-13T08:43:16;3.38;;;1.30;;
41711;SDS011;27399;51.516;13.670;2023-07-13T08:48:23;4.78;;;1.50;;
41711;SDS011;27399;51.516;13.670;2023-07-13T08:51:01;9.57;;;1.95;;
41711;SDS011;27399;51.516;13.670;2023-07-13T08:53:36;8.27;;;1.60;;
41711;SDS011;27399;51.516;13.670;2023-07-13T08:56:09;7.13;;;1.45;;
41711;SDS011;27399;51.516;13.670;2023-07-13T08:58:38;4.00;;;1.50;;
41711;SDS011;27399;51.516;13.670;2023-07-13T09:01:16;4.78;;;1.75;;
41711;SDS011;27399;51.516;13.670;2023-07-13T09:03:59;3.08;;;1.35;;
41711;SDS011;27399;51.516;13.670;2023-07-13T09:06:34;3.63;;;1.58;;
41711;SDS011;27399;51.516;13.670;2023-07-13T09:09:20;2.95;;;1.40;;
41711;SDS011;27399;51.516;13.670;2023-07-13T09:12:14;6.45;;;1.38;;
41711;SDS011;27399;51.516;13.670;2023-07-13T09:14:59;3.20;;;1.40;;
41711;SDS011;27399;51.516;13.670;2023-07-13T09:17:33;19.30;;;2.53;;
41711;SDS011;27399;51.516;13.670;2023-07-13T09:20:12;4.35;;;1.30;;
41711;SDS011;27399;51.516;13.670;2023-07-13T09:22:58;4.57;;;1.38;;
41711;SDS011;27399;51.516;13.670;2023-07-13T09:25:31;4.03;;;1.10;;
41711;SDS011;27399;51.516;13.670;2023-07-13T09:31:13;4.85;;;1.40;;
41711;SDS011;27399;51.516;13.670;2023-07-13T09:33:42;3.85;;;1.30;;
41711;SDS011;27399;51.516;13.670;2023-07-13T09:36:19;6.50;;;1.60;;
41711;SDS011;27399;51.516;13.670;2023-07-13T09:38:53;3.42;;;1.17;;
41711;SDS011;27399;51.516;13.670;2023-07-13T09:41:49;3.05;;;1.38;;
41711;SDS011;27399;51.516;13.670;2023-07-13T09:44:18;8.90;;;2.03;;
41711;SDS011;27399;51.516;13.670;2023-07-13T09:46:55;4.35;;;1.60;;
41711;SDS011;27399;51.516;13.670;2023-07-13T09:49:24;6.68;;;1.45;;
41711;SDS011;27399;51.516;13.670;2023-07-13T09:52:10;9.63;;;1.55;;
41711;SDS011;27399;51.516;13.670;2023-07-13T09:54:39;3.47;;;1.08;;
41711;SDS011;27399;51.516;13.670;2023-07-13T09:57:13;3.92;;;1.00;;
41711;SDS011;27399;51.516;13.670;2023-07-13T09:59:44;7.40;;;1.55;;
41711;SDS011;27399;51.516;13.670;2023-07-13T10:02:31;5.53;;;1.35;;
41711;SDS011;27399;51.516;13.670;2023-07-13T10:04:59;3.50;;;1.25;;
41711;SDS011;27399;51.516;13.670;2023-07-13T10:07:29;4.68;;;1.55;;
41711;SDS011;27399;51.516;13.670;2023-07-13T10:10:00;4.88;;;1.50;;
41711;SDS011;27399;51.516;13.670;2023-07-13T10:12:28;4.55;;;1.30;;
41711;SDS011;27399;51.516;13.670;2023-07-13T10:14:56;4.13;;;1.20;;
41711;SDS011;27399;51.516;13.670;2023-07-13T10:17:26;3.65;;;1.17;;
41711;SDS011;27399;51.516;13.670;2023-07-13T10:19:59;5.80;;;1.20;;
41711;SDS011;27399;51.516;13.670;2023-07-13T10:25:31;2.67;;;1.30;;
41711;SDS011;27399;51.516;13.670;2023-07-13T10:28:04;5.38;;;1.40;;
41711;SDS011;27399;51.516;13.670;2023-07-13T10:30:40;5.18;;;1.27;;
41711;SDS011;27399;51.516;13.670;2023-07-13T10:33:10;2.95;;;1.27;;
41711;SDS011;27399;51.516;13.670;2023-07-13T10:35:37;6.22;;;1.33;;
41711;SDS011;27399;51.516;13.670;2023-07-13T10:38:07;3.75;;;1.33;;
41711;SDS011;27399;51.516;13.670;2023-07-13T10:40:40;6.93;;;1.35;;
41711;SDS011;27399;51.516;13.670;2023-07-13T10:43:11;6.30;;;1.48;;
41711;SDS011;27399;51.516;13.670;2023-07-13T10:45:42;3.55;;;1.38;;
41711;SDS011;27399;51.516;13.670;2023-07-13T10:48:12;4.90;;;1.73;;
41711;SDS011;27399;51.516;13.670;2023-07-13T10:50:40;5.55;;;1.40;;
41711;SDS011;27399;51.516;13.670;2023-07-13T10:53:21;2.60;;;1.25;;
41711;SDS011;27399;51.516;13.670;2023-07-13T10:55:58;3.95;;;1.45;;
41711;SDS011;27399;51.516;13.670;2023-07-13T11:01:08;4.05;;;1.27;;
41711;SDS011;27399;51.516;13.670;2023-07-13T11:06:39;4.68;;;1.48;;
41711;SDS011;27399;51.516;13.670;2023-07-13T11:12:26;3.88;;;1.05;;
41711;SDS011;27399;51.516;13.670;2023-07-13T11:15:13;7.03;;;1.52;;
41711;SDS011;27399;51.516;13.670;2023-07-13T11:17:48;2.53;;;1.17;;
41711;SDS011;27399;51.516;13.670;2023-07-13T11:22:46;2.95;;;1.02;;
41711;SDS011;27399;51.516;13.670;2023-07-13T11:30:42;1.75;;;0.90;;
41711;SDS011;27399;51.516;13.670;2023-07-13T11:36:04;5.10;;;1.00;;
41711;SDS011;27399;51.516;13.670;2023-07-13T11:41:19;4.28;;;0.90;;
41711;SDS011;27399;51.516;13.670;2023-07-13T11:43:50;8.07;;;1.10;;
41711;SDS011;27399;51.516;13.670;2023-07-13T11:46:20;5.28;;;0.90;;
41711;SDS011;27399;51.516;13.670;2023-07-13T11:48:47;3.60;;;1.20;;
41711;SDS011;27399;51.516;13.670;2023-07-13T11:51:27;4.90;;;1.27;;
41711;SDS011;27399;51.516;13.670;2023-07-13T11:54:00;4.22;;;0.80;;
41711;SDS011;27399;51.516;13.670;2023-07-13T11:56:28;2.78;;;1.10;;
41711;SDS011;27399;51.516;13.670;2023-07-13T11:58:57;10.07;;;1.20;;
41711;SDS011;27399;51.516;13.670;2023-07-13T12:01:29;1.95;;;0.90;;
41711;SDS011;27399;51.516;13.670;2023-07-13T12:03:58;5.68;;;1.15;;
41711;SDS011;27399;51.516;13.670;2023-07-13T12:06:35;3.50;;;1.05;;
41711;SDS011;27399;51.516;13.670;2023-07-13T12:09:10;6.05;;;1.30;;
41711;SDS011;27399;51.516;13.670;2023-07-13T12:11:45;1.92;;;1.10;;
41711;SDS011;27399;51.516;13.670;2023-07-13T12:14:17;2.70;;;0.90;;
41711;SDS011;27399;51.516;13.670;2023-07-13T12:16:45;3.97;;;1.15;;
41711;SDS011;27399;51.516;13.670;2023-07-13T12:19:18;8.57;;;1.23;;
41711;SDS011;27399;51.516;13.670;2023-07-13T12:21:50;9.98;;;1.65;;
41711;SDS011;27399;51.516;13.670;2023-07-13T12:24:20;4.00;;;1.10;;
41711;SDS011;27399;51.516;13.670;2023-07-13T12:26:52;3.83;;;1.45;;
41711;SDS011;27399;51.516;13.670;2023-07-13T12:29:25;6.13;;;1.13;;
41711;SDS011;27399;51.516;13.670;2023-07-13T12:31:51;4.15;;;1.20;;
41711;SDS011;27399;51.516;13.670;2023-07-13T12:34:21;4.68;;;1.40;;
41711;SDS011;27399;51.516;13.670;2023-07-13T12:36:56;3.28;;;1.40;;
41711;SDS011;27399;51.516;13.670;2023-07-13T12:39:32;5.40;;;1.20;;
41711;SDS011;27399;51.516;13.670;2023-07-13T12:45:02;4.65;;;1.40;;
41711;SDS011;27399;51.516;13.670;2023-07-13T12:50:17;5.25;;;1.20;;
41711;SDS011;27399;51.516;13.670;2023-07-13T12:52:49;5.10;;;1.48;;
41711;SDS011;27399;51.516;13.670;2023-07-13T12:55:28;5.90;;;1.23;;
41711;SDS011;27399;51.516;13.670;2023-07-13T12:57:58;3.47;;;1.40;;
41711;SDS011;27399;51.516;13.670;2023-07-13T13:00:29;5.47;;;0.82;;
41711;SDS011;27399;51.516;13.670;2023-07-13T13:06:04;3.33;;;1.08;;
41711;SDS011;27399;51.516;13.670;2023-07-13T13:08:44;2.63;;;0.98;;
41711;SDS011;27399;51.516;13.670;2023-07-13T13:11:15;3.92;;;1.30;;
41711;SDS011;27399;51.516;13.670;2023-07-13T13:13:42;3.35;;;1.30;;
41711;SDS011;27399;51.516;13.670;2023-07-13T13:16:29;4.05;;;0.90;;
41711;SDS011;27399;51.516;13.670;2023-07-13T13:18:57;3.08;;;0.88;;
41711;SDS011;27399;51.516;13.670;2023-07-13T13:21:27;1.38;;;0.88;;
41711;SDS011;27399;51.516;13.670;2023-07-13T13:23:53;3.95;;;1.02;;
41711;SDS011;27399;51.516;13.670;2023-07-13T13:26:19;5.07;;;1.35;;
41711;SDS011;27399;51.516;13.670;2023-07-13T13:28:47;4.78;;;1.13;;
41711;SDS011;27399;51.516;13.670;2023-07-13T13:31:13;4.22;;;1.20;;
41711;SDS011;27399;51.516;13.670;2023-07-13T13:33:44;3.03;;;0.88;;
41711;SDS011;27399;51.516;13.670;2023-07-13T13:36:18;4.97;;;1.48;;
41711;SDS011;27399;51.516;13.670;2023-07-13T13:38:47;4.45;;;1.10;;
41711;SDS011;27399;51.516;13.670;2023-07-13T13:41:14;3.55;;;1.05;;
41711;SDS011;27399;51.516;13.670;2023-07-13T13:43:41;2.53;;;1.00;;
41711;SDS011;27399;51.516;13.670;2023-07-13T13:48:41;2.83;;;1.10;;
41711;SDS011;27399;51.516;13.670;2023-07-13T13:51:21;2.10;;;0.68;;
41711;SDS011;27399;51.516;13.670;2023-07-13T13:53:49;1.63;;;0.90;;
41711;SDS011;27399;51.516;13.670;2023-07-13T13:56:15;4.57;;;1.15;;
41711;SDS011;27399;51.516;13.670;2023-07-13T13:58:43;1.85;;;0.88;;
41711;SDS011;27399;51.516;13.670;2023-07-13T14:01:20;5.68;;;1.02;;
41711;SDS011;27399;51.516;13.670;2023-07-13T14:03:48;4.60;;;1.00;;
41711;SDS011;27399;51.516;13.670;2023-07-13T14:06:16;2.95;;;0.80;;
41711;SDS011;27399;51.516;13.670;2023-07-13T14:08:42;9.32;;;1.00;;
41711;SDS011;27399;51.516;13.670;2023-07-13T14:11:15;2.55;;;0.90;;
41711;SDS011;27399;51.516;13.670;2023-07-13T14:13:47;4.40;;;0.88;;
41711;SDS011;27399;51.516;13.670;2023-07-13T14:16:17;3.75;;;1.30;;
41711;SDS011;27399;51.516;13.670;2023-07-13T14:18:45;6.00;;;1.35;;
41711;SDS011;27399;51.516;13.670;2023-07-13T14:21:13;3.13;;;1.10;;
41711;SDS011;27399;51.516;13.670;2023-07-13T14:23:40;8.80;;;0.80;;
41711;SDS011;27399;51.516;13.670;2023-07-13T14:26:10;3.35;;;1.02;;
41711;SDS011;27399;51.516;13.670;2023-07-13T14:28:38;5.28;;;0.95;;
41711;SDS011;27399;51.516;13.670;2023-07-13T14:31:11;2.08;;;0.73;;
41711;SDS011;27399;51.516;13.670;2023-07-13T14:33:38;3.50;;;1.08;;
41711;SDS011;27399;51.516;13.670;2023-07-13T14:36:21;2.45;;;0.75;;
41711;SDS011;27399;51.516;13.670;2023-07-13T14:38:50;1.45;;;0.75;;
41711;SDS011;27399;51.516;13.670;2023-07-13T14:41:15;5.85;;;1.00;;
41711;SDS011;27399;51.516;13.670;2023-07-13T14:43:41;4.72;;;1.30;;
41711;SDS011;27399;51.516;13.670;2023-07-13T14:46:08;4.70;;;1.30;;
41711;SDS011;27399;51.516;13.670;2023-07-13T14:49:24;3.80;;;1.00;;
41711;SDS011;27399;51.516;13.670;2023-07-13T14:52:13;3.35;;;1.08;;
41711;SDS011;27399;51.516;13.670;2023-07-13T14:54:41;3.15;;;0.85;;
41711;SDS011;27399;51.516;13.670;2023-07-13T14:57:12;2.22;;;1.15;;
41711;SDS011;27399;51.516;13.670;2023-07-13T14:59:40;1.95;;;0.90;;
41711;SDS011;27399;51.516;13.670;2023-07-13T15:02:16;2.42;;;0.90;;
41711;SDS011;27399;51.516;13.670;2023-07-13T15:05:14;3.55;;;0.95;;
41711;SDS011;27399;51.516;13.670;2023-07-13T15:07:59;11.43;;;1.30;;
41711;SDS011;27399;51.516;13.670;2023-07-13T15:10:30;8.75;;;1.35;;
41711;SDS011;27399;51.516;13.670;2023-07-13T15:12:59;4.28;;;1.50;;
41711;SDS011;27399;51.516;13.670;2023-07-13T15:15:27;4.00;;;0.82;;
41711;SDS011;27399;51.516;13.670;2023-07-13T15:17:54;1.92;;;0.82;;
41711;SDS011;27399;51.516;13.670;2023-07-13T15:20:25;2.47;;;0.90;;
41711;SDS011;27399;51.516;13.670;2023-07-13T15:22:54;1.35;;;0.80;;
41711;SDS011;27399;51.516;13.670;2023-07-13T15:25:21;8.48;;;1.10;;
41711;SDS011;27399;51.516;13.670;2023-07-13T15:27:51;1.73;;;0.70;;
41711;SDS011;27399;51.516;13.670;2023-07-13T15:30:18;3.03;;;1.02;;
41711;SDS011;27399;51.516;13.670;2023-07-13T15:32:44;7.10;;;0.90;;
41711;SDS011;27399;51.516;13.670;2023-07-13T15:35:24;2.90;;;1.00;;